sensor_id;sensor_type;location;lat;lon;timestamp;temperature;humidity
26254;DHT22;53339;51.378;0.094;2022-11-06T00:02:00;13.60;93.90
26254;DHT22;53339;51.378;0.094;2022-11-06T00:04:28;13.70;93.90
26254;DHT22;53339;51.378;0.094;2022-11-06T00:06:56;13.60;93.90
26254;DHT22;53339;51.378;0.094;2022-11-06T00:09:23;13.60;93.90
26254;DHT22;53339;51.378;0.094;2022-11-06T00:11:51;13.70;93.90
26254;DHT22;53339;51.378;0.094;2022-11-06T00:14:19;13.60;93.90
26254;DHT22;53339;51.378;0.094;2022-11-06T00:16:47;13.70;93.90
26254;DHT22;53339;51.378;0.094;2022-11-06T00:19:15;13.70;93.90
26254;DHT22;53339;51.378;0.094;2022-11-06T00:21:43;13.60;93.90
26254;DHT22;53339;51.378;0.094;2022-11-06T00:24:13;13.60;93.90
26254;DHT22;53339;51.378;0.094;2022-11-06T00:26:41;13.60;93.90
26254;DHT22;53339;51.378;0.094;2022-11-06T00:29:12;13.60;93.90
26254;DHT22;53339;51.378;0.094;2022-11-06T00:31:40;13.60;93.90
26254;DHT22;53339;51.378;0.094;2022-11-06T00:34:08;13.60;93.90
26254;DHT22;53339;51.378;0.094;2022-11-06T00:36:37;13.60;93.90
26254;DHT22;53339;51.378;0.094;2022-11-06T00:39:04;13.60;93.90
26254;DHT22;53339;51.378;0.094;2022-11-06T00:41:32;13.60;93.90
26254;DHT22;53339;51.378;0.094;2022-11-06T00:44:01;13.60;93.90
26254;DHT22;53339;51.378;0.094;2022-11-06T00:46:29;13.60;93.90
26254;DHT22;53339;51.378;0.094;2022-11-06T00:48:57;13.60;93.90
26254;DHT22;53339;51.378;0.094;2022-11-06T00:51:27;13.60;93.90
26254;DHT22;53339;51.378;0.094;2022-11-06T00:53:57;13.60;93.90
26254;DHT22;53339;51.378;0.094;2022-11-06T00:56:26;13.60;93.90
26254;DHT22;53339;51.378;0.094;2022-11-06T00:58:54;13.60;93.90
26254;DHT22;53339;51.378;0.094;2022-11-06T01:01:30;13.60;93.90
26254;DHT22;53339;51.378;0.094;2022-11-06T01:04:04;13.60;93.90
26254;DHT22;53339;51.378;0.094;2022-11-06T01:06:37;13.60;93.90
26254;DHT22;53339;51.378;0.094;2022-11-06T01:09:06;13.60;93.90
26254;DHT22;53339;51.378;0.094;2022-11-06T01:11:39;13.60;93.90
26254;DHT22;53339;51.378;0.094;2022-11-06T01:14:27;13.60;93.90
26254;DHT22;53339;51.378;0.094;2022-11-06T01:16:55;13.60;93.90
26254;DHT22;53339;51.378;0.094;2022-11-06T01:19:23;13.70;93.90
26254;DHT22;53339;51.378;0.094;2022-11-06T01:21:52;13.60;93.90
26254;DHT22;53339;51.378;0.094;2022-11-06T01:24:25;13.60;93.90
26254;DHT22;53339;51.378;0.094;2022-11-06T01:26:53;13.60;93.90
26254;DHT22;53339;51.378;0.094;2022-11-06T01:29:42;13.60;93.90
26254;DHT22;53339;51.378;0.094;2022-11-06T01:32:10;13.60;93.90
26254;DHT22;53339;51.378;0.094;2022-11-06T01:34:38;13.70;93.90
26254;DHT22;53339;51.378;0.094;2022-11-06T01:37:06;13.60;93.90
26254;DHT22;53339;51.378;0.094;2022-11-06T01:39:37;13.60;93.90
26254;DHT22;53339;51.378;0.094;2022-11-06T01:42:05;13.60;94.00
26254;DHT22;53339;51.378;0.094;2022-11-06T01:47:02;13.60;93.90
26254;DHT22;53339;51.378;0.094;2022-11-06T01:49:34;13.60;93.90
26254;DHT22;53339;51.378;0.094;2022-11-06T01:52:06;13.70;94.00
26254;DHT22;53339;51.378;0.094;2022-11-06T01:54:37;13.60;94.00
26254;DHT22;53339;51.378;0.094;2022-11-06T01:57:06;13.60;94.00
26254;DHT22;53339;51.378;0.094;2022-11-06T01:59:36;13.60;94.00
26254;DHT22;53339;51.378;0.094;2022-11-06T02:02:05;13.60;93.90
26254;DHT22;53339;51.378;0.094;2022-11-06T02:04:40;13.70;94.00
26254;DHT22;53339;51.378;0.094;2022-11-06T02:07:08;13.60;94.00
26254;DHT22;53339;51.378;0.094;2022-11-06T02:09:36;13.70;94.00
26254;DHT22;53339;51.378;0.094;2022-11-06T02:12:15;13.70;94.00
26254;DHT22;53339;51.378;0.094;2022-11-06T02:24:07;13.70;94.00
26254;DHT22;53339;51.378;0.094;2022-11-06T02:29:19;13.70;94.00
26254;DHT22;53339;51.378;0.094;2022-11-06T02:31:51;13.70;94.00
26254;DHT22;53339;51.378;0.094;2022-11-06T02:34:23;13.70;94.00
26254;DHT22;53339;51.378;0.094;2022-11-06T02:36:58;13.70;94.00
26254;DHT22;53339;51.378;0.094;2022-11-06T02:39:31;13.70;94.00
26254;DHT22;53339;51.378;0.094;2022-11-06T02:41:59;13.70;94.00
26254;DHT22;53339;51.378;0.094;2022-11-06T02:44:31;13.70;94.00
26254;DHT22;53339;51.378;0.094;2022-11-06T02:47:05;13.70;94.00
26254;DHT22;53339;51.378;0.094;2022-11-06T02:49:48;13.70;94.00
26254;DHT22;53339;51.378;0.094;2022-11-06T02:52:24;13.70;94.00
26254;DHT22;53339;51.378;0.094;2022-11-06T02:55:19;13.70;94.00
26254;DHT22;53339;51.378;0.094;2022-11-06T02:57:51;13.70;94.00
26254;DHT22;53339;51.378;0.094;2022-11-06T03:00:21;13.70;94.00
26254;DHT22;53339;51.378;0.094;2022-11-06T03:03:00;13.70;94.00
26254;DHT22;53339;51.378;0.094;2022-11-06T03:05:36;13.70;94.00
26254;DHT22;53339;51.378;0.094;2022-11-06T03:08:29;13.70;94.00
26254;DHT22;53339;51.378;0.094;2022-11-06T03:18:49;13.70;94.00
26254;DHT22;53339;51.378;0.094;2022-11-06T03:21:29;13.70;94.00
26254;DHT22;53339;51.378;0.094;2022-11-06T03:24:13;13.70;94.00
26254;DHT22;53339;51.378;0.094;2022-11-06T03:26:51;13.70;94.00
26254;DHT22;53339;51.378;0.094;2022-11-06T03:35:14;13.70;94.00
26254;DHT22;53339;51.378;0.094;2022-11-06T03:40:38;13.70;94.00
26254;DHT22;53339;51.378;0.094;2022-11-06T03:43:09;13.70;94.00
26254;DHT22;53339;51.378;0.094;2022-11-06T03:45:38;13.70;94.00
26254;DHT22;53339;51.378;0.094;2022-11-06T03:48:18;13.70;94.00
26254;DHT22;53339;51.378;0.094;2022-11-06T03:53:43;13.70;94.00
26254;DHT22;53339;51.378;0.094;2022-11-06T03:56:21;13.70;94.00
26254;DHT22;53339;51.378;0.094;2022-11-06T03:58:50;13.70;94.00
26254;DHT22;53339;51.378;0.094;2022-11-06T04:01:24;13.60;94.00
26254;DHT22;53339;51.378;0.094;2022-11-06T04:03:58;13.70;94.00
26254;DHT22;53339;51.378;0.094;2022-11-06T04:06:39;13.60;94.00
26254;DHT22;53339;51.378;0.094;2022-11-06T04:09:11;13.70;94.00
26254;DHT22;53339;51.378;0.094;2022-11-06T04:12:00;13.70;94.00
26254;DHT22;53339;51.378;0.094;2022-11-06T04:14:51;13.70;94.00
26254;DHT22;53339;51.378;0.094;2022-11-06T04:17:21;13.70;94.00
26254;DHT22;53339;51.378;0.094;2022-11-06T04:19:53;13.60;94.00
26254;DHT22;53339;51.378;0.094;2022-11-06T04:22:26;13.70;94.00
26254;DHT22;53339;51.378;0.094;2022-11-06T04:28:42;13.70;94.00
26254;DHT22;53339;51.378;0.094;2022-11-06T04:31:33;13.70;94.00
26254;DHT22;53339;51.378;0.094;2022-11-06T04:34:16;13.70;94.00
26254;DHT22;53339;51.378;0.094;2022-11-06T04:37:00;13.70;94.00
26254;DHT22;53339;51.378;0.094;2022-11-06T04:39:57;13.70;94.00
26254;DHT22;53339;51.378;0.094;2022-11-06T04:45:23;13.70;94.00
26254;DHT22;53339;51.378;0.094;2022-11-06T04:47:53;13.70;94.00
26254;DHT22;53339;51.378;0.094;2022-11-06T04:50:22;13.80;94.00
26254;DHT22;53339;51.378;0.094;2022-11-06T04:52:52;13.80;94.00
26254;DHT22;53339;51.378;0.094;2022-11-06T04:55:20;13.80;94.00
26254;DHT22;53339;51.378;0.094;2022-11-06T04:57:48;13.70;94.00
26254;DHT22;53339;51.378;0.094;2022-11-06T05:00:16;13.80;94.00
26254;DHT22;53339;51.378;0.094;2022-11-06T05:02:43;13.80;94.00
26254;DHT22;53339;51.378;0.094;2022-11-06T05:05:11;13.80;94.00
26254;DHT22;53339;51.378;0.094;2022-11-06T05:07:38;13.80;94.00
26254;DHT22;53339;51.378;0.094;2022-11-06T05:10:06;13.80;94.00
26254;DHT22;53339;51.378;0.094;2022-11-06T05:12:34;13.80;94.00
26254;DHT22;53339;51.378;0.094;2022-11-06T05:15:02;13.80;94.00
26254;DHT22;53339;51.378;0.094;2022-11-06T05:17:30;13.80;94.00
26254;DHT22;53339;51.378;0.094;2022-11-06T05:20:03;13.80;94.00
26254;DHT22;53339;51.378;0.094;2022-11-06T05:22:30;13.80;93.90
26254;DHT22;53339;51.378;0.094;2022-11-06T05:25:16;13.80;93.90
26254;DHT22;53339;51.378;0.094;2022-11-06T05:27:44;13.70;93.80
26254;DHT22;53339;51.378;0.094;2022-11-06T05:30:12;13.70;93.90
26254;DHT22;53339;51.378;0.094;2022-11-06T05:32:39;13.70;93.80
26254;DHT22;53339;51.378;0.094;2022-11-06T05:35:07;13.70;93.80
26254;DHT22;53339;51.378;0.094;2022-11-06T05:37:34;13.70;93.80
26254;DHT22;53339;51.378;0.094;2022-11-06T05:40:03;13.70;93.80
26254;DHT22;53339;51.378;0.094;2022-11-06T05:42:31;13.70;93.80
26254;DHT22;53339;51.378;0.094;2022-11-06T05:44:58;13.70;93.70
26254;DHT22;53339;51.378;0.094;2022-11-06T05:47:26;13.70;93.70
26254;DHT22;53339;51.378;0.094;2022-11-06T05:49:53;13.60;93.70
26254;DHT22;53339;51.378;0.094;2022-11-06T05:52:21;13.60;93.70
26254;DHT22;53339;51.378;0.094;2022-11-06T05:54:48;13.60;93.70
26254;DHT22;53339;51.378;0.094;2022-11-06T05:57:16;13.60;93.70
26254;DHT22;53339;51.378;0.094;2022-11-06T05:59:44;13.60;93.70
26254;DHT22;53339;51.378;0.094;2022-11-06T06:02:11;13.60;93.70
26254;DHT22;53339;51.378;0.094;2022-11-06T06:04:39;13.60;93.70
26254;DHT22;53339;51.378;0.094;2022-11-06T06:07:06;13.50;93.70
26254;DHT22;53339;51.378;0.094;2022-11-06T06:09:34;13.50;93.70
26254;DHT22;53339;51.378;0.094;2022-11-06T06:12:01;13.50;93.80
26254;DHT22;53339;51.378;0.094;2022-11-06T06:14:29;13.60;93.80
26254;DHT22;53339;51.378;0.094;2022-11-06T06:16:56;13.60;93.80
26254;DHT22;53339;51.378;0.094;2022-11-06T06:19:24;13.60;93.80
26254;DHT22;53339;51.378;0.094;2022-11-06T06:21:51;13.60;93.80
26254;DHT22;53339;51.378;0.094;2022-11-06T06:24:19;13.60;93.90
26254;DHT22;53339;51.378;0.094;2022-11-06T06:26:46;13.70;93.80
26254;DHT22;53339;51.378;0.094;2022-11-06T06:29:14;13.70;93.90
26254;DHT22;53339;51.378;0.094;2022-11-06T06:31:41;13.70;93.90
26254;DHT22;53339;51.378;0.094;2022-11-06T06:34:09;13.70;93.90
26254;DHT22;53339;51.378;0.094;2022-11-06T06:36:36;13.70;93.90
26254;DHT22;53339;51.378;0.094;2022-11-06T06:39:04;13.70;93.90
26254;DHT22;53339;51.378;0.094;2022-11-06T06:41:31;13.70;93.90
26254;DHT22;53339;51.378;0.094;2022-11-06T06:43:59;13.70;93.90
26254;DHT22;53339;51.378;0.094;2022-11-06T06:46:27;13.70;93.90
26254;DHT22;53339;51.378;0.094;2022-11-06T06:48:54;13.70;93.90
26254;DHT22;53339;51.378;0.094;2022-11-06T06:51:22;13.70;93.90
26254;DHT22;53339;51.378;0.094;2022-11-06T06:53:50;13.70;93.90
26254;DHT22;53339;51.378;0.094;2022-11-06T06:56:18;13.70;93.90
26254;DHT22;53339;51.378;0.094;2022-11-06T06:58:45;13.70;93.90
26254;DHT22;53339;51.378;0.094;2022-11-06T07:01:13;13.70;93.90
26254;DHT22;53339;51.378;0.094;2022-11-06T07:03:40;13.70;93.90
26254;DHT22;53339;51.378;0.094;2022-11-06T07:06:08;13.70;93.90
26254;DHT22;53339;51.378;0.094;2022-11-06T07:08:35;13.70;93.90
26254;DHT22;53339;51.378;0.094;2022-11-06T07:11:07;13.70;93.90
26254;DHT22;53339;51.378;0.094;2022-11-06T07:13:35;13.70;93.90
26254;DHT22;53339;51.378;0.094;2022-11-06T07:16:04;13.70;93.90
26254;DHT22;53339;51.378;0.094;2022-11-06T07:18:33;13.70;93.90
26254;DHT22;53339;51.378;0.094;2022-11-06T07:21:04;13.70;93.90
26254;DHT22;53339;51.378;0.094;2022-11-06T07:23:33;13.70;93.90
26254;DHT22;53339;51.378;0.094;2022-11-06T07:26:01;13.70;93.90
26254;DHT22;53339;51.378;0.094;2022-11-06T07:28:28;13.70;93.90
26254;DHT22;53339;51.378;0.094;2022-11-06T07:31:01;13.70;93.90
26254;DHT22;53339;51.378;0.094;2022-11-06T07:33:29;13.70;93.90
26254;DHT22;53339;51.378;0.094;2022-11-06T07:36:08;13.70;93.90
26254;DHT22;53339;51.378;0.094;2022-11-06T07:38:37;13.70;93.90
26254;DHT22;53339;51.378;0.094;2022-11-06T07:41:08;13.70;93.90
26254;DHT22;53339;51.378;0.094;2022-11-06T07:43:36;13.70;94.00
26254;DHT22;53339;51.378;0.094;2022-11-06T07:46:05;13.70;94.00
26254;DHT22;53339;51.378;0.094;2022-11-06T07:48:33;13.70;94.00
26254;DHT22;53339;51.378;0.094;2022-11-06T07:51:03;13.70;94.00
26254;DHT22;53339;51.378;0.094;2022-11-06T07:53:31;13.80;94.00
26254;DHT22;53339;51.378;0.094;2022-11-06T07:55:59;13.80;93.90
26254;DHT22;53339;51.378;0.094;2022-11-06T07:58:27;13.70;93.90
26254;DHT22;53339;51.378;0.094;2022-11-06T08:00:56;13.80;94.00
26254;DHT22;53339;51.378;0.094;2022-11-06T08:03:25;13.80;94.00
26254;DHT22;53339;51.378;0.094;2022-11-06T08:05:53;13.80;94.00
26254;DHT22;53339;51.378;0.094;2022-11-06T08:08:21;13.80;93.90
26254;DHT22;53339;51.378;0.094;2022-11-06T08:10:48;13.80;94.00
26254;DHT22;53339;51.378;0.094;2022-11-06T08:13:18;13.80;94.00
26254;DHT22;53339;51.378;0.094;2022-11-06T08:15:45;13.80;94.00
26254;DHT22;53339;51.378;0.094;2022-11-06T08:18:13;13.80;93.90
26254;DHT22;53339;51.378;0.094;2022-11-06T08:20:41;13.80;94.00
26254;DHT22;53339;51.378;0.094;2022-11-06T08:23:11;13.80;94.00
26254;DHT22;53339;51.378;0.094;2022-11-06T08:25:39;13.80;94.00
26254;DHT22;53339;51.378;0.094;2022-11-06T08:28:07;13.80;93.90
26254;DHT22;53339;51.378;0.094;2022-11-06T08:30:35;13.80;94.00
26254;DHT22;53339;51.378;0.094;2022-11-06T08:33:05;13.80;94.00
26254;DHT22;53339;51.378;0.094;2022-11-06T08:35:33;13.80;94.00
26254;DHT22;53339;51.378;0.094;2022-11-06T08:38:01;13.70;93.90
26254;DHT22;53339;51.378;0.094;2022-11-06T08:40:29;13.70;94.00
26254;DHT22;53339;51.378;0.094;2022-11-06T08:43:02;13.80;94.00
26254;DHT22;53339;51.378;0.094;2022-11-06T08:45:30;13.80;94.00
26254;DHT22;53339;51.378;0.094;2022-11-06T08:48:02;13.70;94.00
26254;DHT22;53339;51.378;0.094;2022-11-06T08:50:30;13.80;94.00
26254;DHT22;53339;51.378;0.094;2022-11-06T08:52:59;13.80;94.00
26254;DHT22;53339;51.378;0.094;2022-11-06T08:55:31;13.70;94.00
26254;DHT22;53339;51.378;0.094;2022-11-06T08:57:59;13.70;94.00
26254;DHT22;53339;51.378;0.094;2022-11-06T09:00:28;13.70;94.00
26254;DHT22;53339;51.378;0.094;2022-11-06T09:03:00;13.70;94.00
26254;DHT22;53339;51.378;0.094;2022-11-06T09:05:28;13.70;94.00
26254;DHT22;53339;51.378;0.094;2022-11-06T09:07:58;13.70;94.00
26254;DHT22;53339;51.378;0.094;2022-11-06T09:10:26;13.70;94.00
26254;DHT22;53339;51.378;0.094;2022-11-06T09:12:53;13.70;94.00
26254;DHT22;53339;51.378;0.094;2022-11-06T09:15:22;13.70;94.00
26254;DHT22;53339;51.378;0.094;2022-11-06T09:17:50;13.70;94.00
26254;DHT22;53339;51.378;0.094;2022-11-06T09:20:19;13.70;94.00
26254;DHT22;53339;51.378;0.094;2022-11-06T09:22:47;13.60;94.00
26254;DHT22;53339;51.378;0.094;2022-11-06T09:25:15;13.70;94.00
26254;DHT22;53339;51.378;0.094;2022-11-06T09:27:45;13.70;94.00
26254;DHT22;53339;51.378;0.094;2022-11-06T09:30:13;13.70;94.00
26254;DHT22;53339;51.378;0.094;2022-11-06T09:32:46;13.70;94.00
26254;DHT22;53339;51.378;0.094;2022-11-06T09:35:14;13.70;94.00
26254;DHT22;53339;51.378;0.094;2022-11-06T09:37:42;13.70;94.00
26254;DHT22;53339;51.378;0.094;2022-11-06T09:46:22;13.70;94.10
26254;DHT22;53339;51.378;0.094;2022-11-06T09:48:59;13.70;94.00
26254;DHT22;53339;51.378;0.094;2022-11-06T09:54:23;13.70;94.10
26254;DHT22;53339;51.378;0.094;2022-11-06T09:56:57;13.70;94.10
26254;DHT22;53339;51.378;0.094;2022-11-06T09:59:26;13.70;94.10
26254;DHT22;53339;51.378;0.094;2022-11-06T10:01:56;13.70;94.10
26254;DHT22;53339;51.378;0.094;2022-11-06T10:04:48;13.70;94.10
26254;DHT22;53339;51.378;0.094;2022-11-06T10:07:33;13.70;94.10
26254;DHT22;53339;51.378;0.094;2022-11-06T10:10:03;13.60;94.10
26254;DHT22;53339;51.378;0.094;2022-11-06T10:15:25;13.60;94.00
26254;DHT22;53339;51.378;0.094;2022-11-06T10:18:18;13.60;94.00
26254;DHT22;53339;51.378;0.094;2022-11-06T10:20:56;13.60;94.10
26254;DHT22;53339;51.378;0.094;2022-11-06T10:26:23;13.60;94.00
26254;DHT22;53339;51.378;0.094;2022-11-06T10:34:45;13.60;94.00
26254;DHT22;53339;51.378;0.094;2022-11-06T10:37:31;13.50;94.00
26254;DHT22;53339;51.378;0.094;2022-11-06T10:40:04;13.40;94.00
26254;DHT22;53339;51.378;0.094;2022-11-06T10:42:35;13.40;94.00
26254;DHT22;53339;51.378;0.094;2022-11-06T10:45:13;13.40;94.00
26254;DHT22;53339;51.378;0.094;2022-11-06T10:47:54;13.30;93.90
26254;DHT22;53339;51.378;0.094;2022-11-06T10:50:27;13.30;93.90
26254;DHT22;53339;51.378;0.094;2022-11-06T10:53:26;13.20;93.90
26254;DHT22;53339;51.378;0.094;2022-11-06T10:58:51;13.20;93.80
26254;DHT22;53339;51.378;0.094;2022-11-06T11:01:20;13.10;93.80
26254;DHT22;53339;51.378;0.094;2022-11-06T11:03:47;13.00;93.70
26254;DHT22;53339;51.378;0.094;2022-11-06T11:06:17;13.00;93.70
26254;DHT22;53339;51.378;0.094;2022-11-06T11:08:45;13.00;93.70
26254;DHT22;53339;51.378;0.094;2022-11-06T11:13:42;12.90;93.80
26254;DHT22;53339;51.378;0.094;2022-11-06T11:16:15;12.90;93.80
26254;DHT22;53339;51.378;0.094;2022-11-06T11:18:48;12.90;93.80
26254;DHT22;53339;51.378;0.094;2022-11-06T11:21:26;12.90;93.80
26254;DHT22;53339;51.378;0.094;2022-11-06T11:26:29;12.80;93.70
26254;DHT22;53339;51.378;0.094;2022-11-06T11:29:44;12.80;93.70
26254;DHT22;53339;51.378;0.094;2022-11-06T11:31:48;12.80;93.70
26254;DHT22;53339;51.378;0.094;2022-11-06T11:34:28;12.80;93.80
26254;DHT22;53339;51.378;0.094;2022-11-06T11:37:04;12.80;93.80
26254;DHT22;53339;51.378;0.094;2022-11-06T11:39:37;12.90;93.80
26254;DHT22;53339;51.378;0.094;2022-11-06T11:42:26;12.80;93.80
26254;DHT22;53339;51.378;0.094;2022-11-06T11:45:15;12.80;93.80
26254;DHT22;53339;51.378;0.094;2022-11-06T11:47:48;12.80;93.70
26254;DHT22;53339;51.378;0.094;2022-11-06T11:52:57;12.70;93.70
26254;DHT22;53339;51.378;0.094;2022-11-06T11:55:26;12.70;93.70
26254;DHT22;53339;51.378;0.094;2022-11-06T11:57:59;12.70;93.70
26254;DHT22;53339;51.378;0.094;2022-11-06T12:00:27;12.70;93.70
26254;DHT22;53339;51.378;0.094;2022-11-06T12:02:58;12.70;93.70
26254;DHT22;53339;51.378;0.094;2022-11-06T12:05:37;12.60;93.70
26254;DHT22;53339;51.378;0.094;2022-11-06T12:08:12;12.60;93.70
26254;DHT22;53339;51.378;0.094;2022-11-06T12:10:46;12.70;93.70
26254;DHT22;53339;51.378;0.094;2022-11-06T12:13:23;12.60;93.70
26254;DHT22;53339;51.378;0.094;2022-11-06T12:18:41;12.60;93.70
26254;DHT22;53339;51.378;0.094;2022-11-06T12:21:20;12.60;93.80
26254;DHT22;53339;51.378;0.094;2022-11-06T12:26:35;12.60;93.70
26254;DHT22;53339;51.378;0.094;2022-11-06T12:34:58;12.60;93.80
26254;DHT22;53339;51.378;0.094;2022-11-06T12:37:34;12.60;93.80
26254;DHT22;53339;51.378;0.094;2022-11-06T12:40:31;12.70;93.80
26254;DHT22;53339;51.378;0.094;2022-11-06T12:43:19;12.70;93.90
26254;DHT22;53339;51.378;0.094;2022-11-06T12:46:19;12.70;93.90
26254;DHT22;53339;51.378;0.094;2022-11-06T12:51:55;12.80;93.90
26254;DHT22;53339;51.378;0.094;2022-11-06T12:57:19;12.90;94.00
26254;DHT22;53339;51.378;0.094;2022-11-06T13:00:21;12.90;94.00
26254;DHT22;53339;51.378;0.094;2022-11-06T13:03:15;13.00;94.00
26254;DHT22;53339;51.378;0.094;2022-11-06T13:11:36;13.10;94.00
26254;DHT22;53339;51.378;0.094;2022-11-06T13:17:07;13.10;94.00
26254;DHT22;53339;51.378;0.094;2022-11-06T13:25:38;13.10;94.00
26254;DHT22;53339;51.378;0.094;2022-11-06T13:30:36;13.30;94.00
26254;DHT22;53339;51.378;0.094;2022-11-06T13:33:24;13.30;94.00
26254;DHT22;53339;51.378;0.094;2022-11-06T13:35:53;13.30;93.90
26254;DHT22;53339;51.378;0.094;2022-11-06T13:38:28;13.40;93.90
26254;DHT22;53339;51.378;0.094;2022-11-06T13:40:59;13.40;93.80
26254;DHT22;53339;51.378;0.094;2022-11-06T13:43:34;13.30;93.80
26254;DHT22;53339;51.378;0.094;2022-11-06T14:00:45;12.70;93.30
26254;DHT22;53339;51.378;0.094;2022-11-06T14:03:23;12.70;93.40
26254;DHT22;53339;51.378;0.094;2022-11-06T14:06:00;12.70;93.40
26254;DHT22;53339;51.378;0.094;2022-11-06T14:08:32;12.70;93.40
26254;DHT22;53339;51.378;0.094;2022-11-06T14:11:13;12.70;93.40
26254;DHT22;53339;51.378;0.094;2022-11-06T14:13:59;12.60;93.30
26254;DHT22;53339;51.378;0.094;2022-11-06T14:16:32;12.60;93.40
26254;DHT22;53339;51.378;0.094;2022-11-06T14:24:30;12.30;93.10
26254;DHT22;53339;51.378;0.094;2022-11-06T14:27:01;12.30;93.10
26254;DHT22;53339;51.378;0.094;2022-11-06T14:34:34;12.20;93.20
26254;DHT22;53339;51.378;0.094;2022-11-06T14:42:34;12.20;93.40
26254;DHT22;53339;51.378;0.094;2022-11-06T14:52:58;11.90;93.20
26254;DHT22;53339;51.378;0.094;2022-11-06T14:58:40;11.70;92.80
26254;DHT22;53339;51.378;0.094;2022-11-06T15:01:14;11.60;92.90
26254;DHT22;53339;51.378;0.094;2022-11-06T15:03:50;11.70;92.90
26254;DHT22;53339;51.378;0.094;2022-11-06T15:06:32;11.70;93.00
26254;DHT22;53339;51.378;0.094;2022-11-06T15:09:10;11.70;93.00
26254;DHT22;53339;51.378;0.094;2022-11-06T15:16:42;11.90;93.20
26254;DHT22;53339;51.378;0.094;2022-11-06T15:21:57;12.20;93.40
26254;DHT22;53339;51.378;0.094;2022-11-06T15:24:48;12.30;93.40
26254;DHT22;53339;51.378;0.094;2022-11-06T15:27:20;12.30;93.20
26254;DHT22;53339;51.378;0.094;2022-11-06T15:29:56;12.20;93.00
26254;DHT22;53339;51.378;0.094;2022-11-06T15:32:28;12.20;92.70
26254;DHT22;53339;51.378;0.094;2022-11-06T15:35:34;12.30;92.70
26254;DHT22;53339;51.378;0.094;2022-11-06T15:38:09;12.40;92.40
26254;DHT22;53339;51.378;0.094;2022-11-06T15:40:39;12.50;92.00
26254;DHT22;53339;51.378;0.094;2022-11-06T15:43:29;12.50;91.80
26254;DHT22;53339;51.378;0.094;2022-11-06T15:46:27;12.40;91.80
26254;DHT22;53339;51.378;0.094;2022-11-06T15:49:06;12.40;91.90
26254;DHT22;53339;51.378;0.094;2022-11-06T15:51:38;12.40;91.70
26254;DHT22;53339;51.378;0.094;2022-11-06T15:54:12;12.20;91.50
26254;DHT22;53339;51.378;0.094;2022-11-06T15:56:40;12.00;91.40
26254;DHT22;53339;51.378;0.094;2022-11-06T15:59:12;11.80;91.50
26254;DHT22;53339;51.378;0.094;2022-11-06T16:01:45;11.60;91.60
26254;DHT22;53339;51.378;0.094;2022-11-06T16:04:17;11.50;91.70
26254;DHT22;53339;51.378;0.094;2022-11-06T16:06:45;11.40;91.80
26254;DHT22;53339;51.378;0.094;2022-11-06T16:09:22;11.20;91.90
26254;DHT22;53339;51.378;0.094;2022-11-06T16:11:52;11.20;92.00
26254;DHT22;53339;51.378;0.094;2022-11-06T16:14:20;11.10;92.00
26254;DHT22;53339;51.378;0.094;2022-11-06T16:16:53;11.10;92.10
26254;DHT22;53339;51.378;0.094;2022-11-06T16:19:34;11.00;92.20
26254;DHT22;53339;51.378;0.094;2022-11-06T16:22:10;11.00;92.10
26254;DHT22;53339;51.378;0.094;2022-11-06T16:24:47;11.00;92.20
26254;DHT22;53339;51.378;0.094;2022-11-06T16:27:16;10.90;92.20
26254;DHT22;53339;51.378;0.094;2022-11-06T16:29:52;10.90;92.20
26254;DHT22;53339;51.378;0.094;2022-11-06T16:32:23;10.90;92.20
26254;DHT22;53339;51.378;0.094;2022-11-06T16:34:50;10.90;92.40
26254;DHT22;53339;51.378;0.094;2022-11-06T16:37:38;10.90;92.40
26254;DHT22;53339;51.378;0.094;2022-11-06T16:43:18;10.90;92.60
26254;DHT22;53339;51.378;0.094;2022-11-06T16:45:54;10.90;92.60
26254;DHT22;53339;51.378;0.094;2022-11-06T16:48:26;11.00;92.70
26254;DHT22;53339;51.378;0.094;2022-11-06T16:50:59;10.90;92.70
26254;DHT22;53339;51.378;0.094;2022-11-06T16:53:31;10.90;92.60
26254;DHT22;53339;51.378;0.094;2022-11-06T16:56:02;10.90;92.60
26254;DHT22;53339;51.378;0.094;2022-11-06T16:58:40;10.90;92.60
26254;DHT22;53339;51.378;0.094;2022-11-06T17:01:10;10.90;92.60
26254;DHT22;53339;51.378;0.094;2022-11-06T17:03:48;10.80;92.50
26254;DHT22;53339;51.378;0.094;2022-11-06T17:06:28;10.80;92.50
26254;DHT22;53339;51.378;0.094;2022-11-06T17:09:05;10.80;92.50
26254;DHT22;53339;51.378;0.094;2022-11-06T17:11:36;10.70;92.50
26254;DHT22;53339;51.378;0.094;2022-11-06T17:14:16;10.70;92.60
26254;DHT22;53339;51.378;0.094;2022-11-06T17:16:53;10.70;92.50
26254;DHT22;53339;51.378;0.094;2022-11-06T17:19:21;10.70;92.60
26254;DHT22;53339;51.378;0.094;2022-11-06T17:21:49;10.70;92.60
26254;DHT22;53339;51.378;0.094;2022-11-06T17:24:17;10.60;92.60
26254;DHT22;53339;51.378;0.094;2022-11-06T17:27:05;10.60;92.60
26254;DHT22;53339;51.378;0.094;2022-11-06T17:29:34;10.60;92.70
26254;DHT22;53339;51.378;0.094;2022-11-06T17:32:02;10.60;92.60
26254;DHT22;53339;51.378;0.094;2022-11-06T17:34:30;10.60;92.70
26254;DHT22;53339;51.378;0.094;2022-11-06T17:36:58;10.60;92.70
26254;DHT22;53339;51.378;0.094;2022-11-06T17:39:26;10.60;92.70
26254;DHT22;53339;51.378;0.094;2022-11-06T17:41:54;10.60;92.60
26254;DHT22;53339;51.378;0.094;2022-11-06T17:44:21;10.60;92.60
26254;DHT22;53339;51.378;0.094;2022-11-06T17:46:49;10.60;92.60
26254;DHT22;53339;51.378;0.094;2022-11-06T17:49:17;10.60;92.60
26254;DHT22;53339;51.378;0.094;2022-11-06T17:51:46;10.60;92.60
26254;DHT22;53339;51.378;0.094;2022-11-06T17:54:21;10.60;92.60
26254;DHT22;53339;51.378;0.094;2022-11-06T17:56:49;10.60;92.60
26254;DHT22;53339;51.378;0.094;2022-11-06T17:59:17;10.60;92.60
26254;DHT22;53339;51.378;0.094;2022-11-06T18:01:45;10.50;92.60
26254;DHT22;53339;51.378;0.094;2022-11-06T18:04:20;10.50;92.60
26254;DHT22;53339;51.378;0.094;2022-11-06T18:06:50;10.50;92.60
26254;DHT22;53339;51.378;0.094;2022-11-06T18:09:20;10.50;92.60
26254;DHT22;53339;51.378;0.094;2022-11-06T18:11:48;10.50;92.60
26254;DHT22;53339;51.378;0.094;2022-11-06T18:14:16;10.50;92.60
26254;DHT22;53339;51.378;0.094;2022-11-06T18:16:44;10.40;92.60
26254;DHT22;53339;51.378;0.094;2022-11-06T18:19:14;10.40;92.60
26254;DHT22;53339;51.378;0.094;2022-11-06T18:21:43;10.40;92.70
26254;DHT22;53339;51.378;0.094;2022-11-06T18:24:10;10.40;92.80
26254;DHT22;53339;51.378;0.094;2022-11-06T18:26:38;10.40;92.80
26254;DHT22;53339;51.378;0.094;2022-11-06T18:29:07;10.40;92.80
26254;DHT22;53339;51.378;0.094;2022-11-06T18:31:35;10.40;92.70
26254;DHT22;53339;51.378;0.094;2022-11-06T18:34:03;10.40;92.70
26254;DHT22;53339;51.378;0.094;2022-11-06T18:36:34;10.40;92.70
26254;DHT22;53339;51.378;0.094;2022-11-06T18:39:03;10.40;92.70
26254;DHT22;53339;51.378;0.094;2022-11-06T18:41:31;10.40;92.70